Time;durP1;ratioP1;P1;durP2;ratioP2;P2;SDS_P1;SDS_P2;PMS_P1;PMS_P2;Temp;Humidity;BMP_temperature;BMP_pressure;BME280_temperature;BME280_humidity;BME280_pressure;Samples;Min_cycle;Max_cycle;Signal;HPM_P1;HPM_P2
2023/04/22 00:01:46;;;;;;;;;;;;;;;;;;12978690;19;19934;-62
2023/04/22 00:06:03;;;;;;;;;;;;;;;;;;12977962;19;19922;-62
2023/04/22 00:10:21;;;;;;;;;;;;;;;;;;12976899;19;20004;-61
2023/04/22 00:14:39;;;;;;;;;;;;;;;;;;12978560;19;20773;-62
2023/04/22 00:18:58;;;;;;;;;;;;;;;;;;12977429;19;19911;-61
2023/04/22 00:23:15;;;;;;;;;;;;;;;;;;12975980;19;19955;-62
2023/04/22 00:27:33;;;;;;;;;;;;;;;;;;12976412;19;19978;-62
2023/04/22 00:31:51;;;;;;;;;;;;;;;;;;12976940;19;19931;-62
2023/04/22 00:36:08;;;;;;;;;;;;;;;;;;12975895;19;20760;-61
2023/04/22 00:40:26;;;;;;;;;;;;;;;;;;12977214;19;19927;-61
2023/04/22 00:44:45;;;;;;;;;;;;;;;;;;12976760;19;19944;-62
2023/04/22 00:49:04;;;;;;;;;;;;;;;;;;12974162;19;20746;-61
2023/04/22 00:53:21;;;;;;;;;;;;;;;;;;12976226;19;20011;-61
2023/04/22 00:57:39;;;;;;;;;;;;;;;;;;12976003;19;19926;-61
2023/04/22 01:01:57;;;;;;;;;;;;;;;;;;12973886;19;19922;-60
2023/04/22 01:06:17;;;;;;;;;;;;;;;;;;12977054;19;20314;-61
2023/04/22 01:10:35;;;;;;;;;;;;;;;;;;12985777;19;20743;-60
2023/04/22 01:14:53;;;;;;;;;;;;;;;;;;12988029;19;19935;-61
2023/04/22 01:19:10;;;;;;;;;;;;;;;;;;12986621;19;19919;-60
2023/04/22 01:23:29;;;;;;;;;;;;;;;;;;12986274;19;20330;-61
2023/04/22 01:27:46;;;;;;;;;;;;;;;;;;12984878;19;19915;-60
2023/04/22 01:32:04;;;;;;;;;;;;;;;;;;12985204;19;20511;-61
2023/04/22 01:36:23;;;;;;;;;;;;;;;;;;12987504;19;20014;-60
2023/04/22 01:40:40;;;;;;;;;;;;;;;;;;12986809;19;20047;-61
2023/04/22 01:44:58;;;;;;;;;;;;;;;;;;12985961;19;19914;-61
2023/04/22 01:49:16;;;;;;;;;;;;;;;;;;12985628;19;20437;-61
2023/04/22 01:53:34;;;;;;;;;;;;;;;;;;12983819;19;19986;-60
2023/04/22 01:57:52;;;;;;;;;;;;;;;;;;12985305;19;20010;-60
2023/04/22 02:02:09;;;;;;;;;;;;;;;;;;12984394;19;19922;-60
2023/04/22 02:06:27;;;;;;;;;;;;;;;;;;12984517;19;20736;-62
2023/04/22 02:10:45;;;;;;;;;;;;;;;;;;12985253;19;19918;-61
2023/04/22 02:15:03;;;;;;;;;;;;;;;;;;12985105;19;19935;-61
2023/04/22 02:19:21;;;;;;;;;;;;;;;;;;12981689;19;19936;-61
2023/04/22 02:23:40;;;;;;;;;;;;;;;;;;12983652;19;19930;-62
2023/04/22 02:27:57;;;;;;;;;;;;;;;;;;12983723;19;19927;-61
2023/04/22 02:32:16;;;;;;;;;;;;;;;;;;12983246;19;19922;-61
2023/04/22 02:36:34;;;;;;;;;;;;;;;;;;12983686;19;20038;-61
2023/04/22 02:40:51;;;;;;;;;;;;;;;;;;12983106;19;19982;-61
2023/04/22 02:45:09;;;;;;;;;;;;;;;;;;12982300;19;20014;-61
2023/04/22 02:49:27;;;;;;;;;;;;;;;;;;12983300;19;20034;-61
2023/04/22 02:53:45;;;;;;;;;;;;;;;;;;12982495;19;19915;-61
2023/04/22 02:58:02;;;;;;;;;;;;;;;;;;12981837;19;20279;-61
2023/04/22 03:02:20;;;;;;;;;;;;;;;;;;12981798;19;20742;-61
2023/04/22 03:06:37;;;;;;;;;;;;;;;;;;12982324;19;19918;-61
2023/04/22 03:10:55;;;;;;;;;;;;;;;;;;12981383;19;20739;-61
2023/04/22 03:15:12;;;;;;;;;;;;;;;;;;12981774;19;19911;-61
2023/04/22 03:19:30;;;;;;;;;;;;;;;;;;12979277;19;20321;-61
2023/04/22 03:23:47;;;;;;;;;;;;;;;;;;12980373;19;19933;-61
2023/04/22 03:28:05;;;;;;;;;;;;;;;;;;12978676;19;20403;-61
2023/04/22 03:32:22;;;;;;;;;;;;;;;;;;12979075;19;19997;-61
2023/04/22 03:36:40;;;;;;;;;;;;;;;;;;12979988;19;20006;-61
2023/04/22 03:40:58;;;;;;;;;;;;;;;;;;12980372;19;19923;-61
2023/04/22 03:45:15;;;;;;;;;;;;;;;;;;12979016;19;19935;-61
2023/04/22 03:49:33;;;;;;;;;;;;;;;;;;12979875;19;20386;-61
2023/04/22 03:53:51;;;;;;;;;;;;;;;;;;12979188;19;20715;-61
2023/04/22 03:58:08;;;;;;;;;;;;;;;;;;12977921;19;20364;-60
2023/04/22 04:02:26;;;;;;;;;;;;;;;;;;12976724;19;19935;-61
2023/04/22 04:06:43;;;;;;;;;;;;;;;;;;12977540;19;19934;-61
2023/04/22 04:11:01;;;;;;;;;;;;;;;;;;12977481;19;19978;-62
2023/04/22 04:15:20;;;;;;;;;;;;;;;;;;12978726;19;20002;-61
2023/04/22 04:19:37;;;;;;;;;;;;;;;;;;12977496;19;19985;-61
2023/04/22 04:23:55;;;;;;;;;;;;;;;;;;12977725;19;20046;-60
2023/04/22 04:28:13;;;;;;;;;;;;;;;;;;12976814;19;19922;-61
2023/04/22 04:32:33;;;;;;;;;;;;;;;;;;12977237;19;20043;-60
2023/04/22 04:36:50;;;;;;;;;;;;;;;;;;12977320;19;19927;-64
2023/04/22 04:41:08;;;;;;;;;;;;;;;;;;12976677;19;19939;-62
2023/04/22 04:45:26;;;;;;;;;;;;;;;;;;12989071;19;20288;-61
2023/04/22 04:49:45;;;;;;;;;;;;;;;;;;12989640;19;19918;-61
2023/04/22 04:54:02;;;;;;;;;;;;;;;;;;12988870;19;19931;-62
2023/04/22 04:58:20;;;;;;;;;;;;;;;;;;12988651;19;19942;-61
2023/04/22 05:02:37;;;;;;;;;;;;;;;;;;12989061;19;20006;-61
2023/04/22 05:06:55;;;;;;;;;;;;;;;;;;12988291;19;19923;-61
2023/04/22 05:11:13;;;;;;;;;;;;;;;;;;12987440;19;19919;-61
2023/04/22 05:15:30;;;;;;;;;;;;;;;;;;12988863;19;20067;-61
2023/04/22 05:19:48;;;;;;;;;;;;;;;;;;12988221;19;20473;-61
2023/04/22 05:24:05;;;;;;;;;;;;;;;;;;12985819;19;20026;-61
2023/04/22 05:28:23;;;;;;;;;;;;;;;;;;12986639;19;19919;-61
2023/04/22 05:32:41;;;;;;;;;;;;;;;;;;12987569;19;19915;-61
2023/04/22 05:36:58;;;;;;;;;;;;;;;;;;12987328;19;19967;-61
2023/04/22 05:41:16;;;;;;;;;;;;;;;;;;12987142;19;19931;-61
2023/04/22 05:45:33;;;;;;;;;;;;;;;;;;12987647;19;19939;-60
2023/04/22 05:49:51;;;;;;;;;;;;;;;;;;12986967;19;19966;-61
2023/04/22 05:54:09;;;;;;;;;;;;;;;;;;12985709;19;19947;-62
2023/04/22 05:58:26;;;;;;;;;;;;;;;;;;12987182;19;19952;-62
2023/04/22 06:02:44;;;;;;;;;;;;;;;;;;12986193;19;19944;-62
2023/04/22 06:07:02;;;;;;;;;;;;;;;;;;12984145;19;19931;-62
2023/04/22 06:11:20;;;;;;;;;;;;;;;;;;12962817;19;19914;-62
2023/04/22 06:15:38;;;;;;;;;;;;;;;;;;12983522;19;19938;-63
2023/04/22 06:19:55;;;;;;;;;;;;;;;;;;12978238;19;19919;-61
2023/04/22 06:24:13;;;;;;;;;;;;;;;;;;12971481;19;19923;-61
2023/04/22 06:28:31;;;;;;;;;;;;;;;;;;12982420;19;20336;-61
2023/04/22 06:32:53;;;;;;;;;;;;;;;;;;12984603;19;20025;-62
2023/04/22 06:37:11;;;;;;;;;;;;;;;;;;12983176;19;19942;-61
2023/04/22 06:41:29;;;;;;;;;;;;;;;;;;12982757;19;19931;-62
2023/04/22 06:45:47;;;;;;;;;;;;;;;;;;12982170;19;19926;-62
2023/04/22 06:50:07;;;;;;;;;;;;;;;;;;12980666;19;19943;-61
2023/04/22 06:54:25;;;;;;;;;;;;;;;;;;12982858;19;19927;-61
2023/04/22 06:58:42;;;;;;;;;;;;;;;;;;12983072;19;19922;-62
2023/04/22 07:03:00;;;;;;;;;;;;;;;;;;12975261;19;19926;-62
2023/04/22 07:07:21;;;;;;;;;;;;;;;;;;12978821;19;19927;-62
2023/04/22 07:11:38;;;;;;;;;;;;;;;;;;12982520;19;19923;-62
2023/04/22 07:15:56;;;;;;;;;;;;;;;;;;12981706;19;19922;-67
2023/04/22 07:20:13;;;;;;;;;;;;;;;;;;12965988;19;20105;-64
2023/04/22 07:24:31;;;;;;;;;;;;;;;;;;12978326;19;19927;-64
2023/04/22 07:28:49;;;;;;;;;;;;;;;;;;12980816;19;19948;-64
2023/04/22 07:33:06;;;;;;;;;;;;;;;;;;12979376;19;19926;-66
2023/04/22 07:37:24;;;;;;;;;;;;;;;;;;12979874;19;19950;-65
2023/04/22 07:42:23;;;;;;;385.38;349.60;;;;;;;;;;12869831;19;3042714;-65
2023/04/22 07:46:42;;;;;;;10.43;2.83;;;;;;;;;;13039361;19;20129;-65
2023/04/22 07:51:00;;;;;;;8.18;7.40;;;;;;;;;;13033866;19;20035;-65
2023/04/22 07:55:18;;;;;;;50.00;44.80;;;;;;;;;;13036897;19;20070;-65
2023/04/22 07:59:35;;;;;;;16.08;9.27;;;;;;;;;;13037329;19;20002;-68
2023/04/22 08:03:53;;;;;;;5.20;2.30;;;;;;;;;;13037848;19;20010;-68
2023/04/22 08:08:12;;;;;;;2.55;1.63;;;;;;;;;;13036797;19;20135;-70
2023/04/22 08:12:29;;;;;;;210.75;190.25;;;;;;;;;;13038183;19;20022;-66
2023/04/22 08:16:47;;;;;;;9.48;3.22;;;;;;;;;;13037609;19;20010;-71
2023/04/22 08:21:05;;;;;;;3.25;1.77;;;;;;;;;;13034957;19;20123;-70
2023/04/22 08:25:23;;;;;;;;;;;;;;;;;;13038737;19;20660;-69
2023/04/22 08:29:40;;;;;;;9.85;4.78;;;;;;;;;;13036824;19;19986;-68
2023/04/22 08:33:58;;;;;;;86.50;52.33;;;;;;;;;;13034200;19;20014;-69
2023/04/22 08:38:17;;;;;;;6.55;3.30;;;;;;;;;;13035541;19;20038;-72
2023/04/22 08:42:36;;;;;;;8.80;2.25;;;;;;;;;;13033881;19;20035;-72
2023/04/22 08:46:55;;;;;;;15.80;10.75;;;;;;;;;;13035610;19;20905;-70
2023/04/22 08:51:16;;;;;;;18.10;9.13;;;;;;;;;;13012928;19;20402;-70
2023/04/22 08:55:35;;;;;;;9.75;4.28;;;;;;;;;;12984818;19;20023;-72
2023/04/22 08:59:55;;;;;;;8.70;6.13;;;;;;;;;;12961251;19;20129;-70
2023/04/22 09:04:14;;;;;;;632.92;570.40;;;;;;;;;;12981473;19;20527;-71
2023/04/22 09:08:32;;;;;;;9.57;2.53;;;;;;;;;;12982391;19;20865;-70
2023/04/22 09:12:52;;;;;;;2.85;1.67;;;;;;;;;;12982600;19;20023;-73
2023/04/22 09:17:10;;;;;;;5.82;2.20;;;;;;;;;;12902568;19;20014;-71
2023/04/22 09:21:31;;;;;;;9.32;4.50;;;;;;;;;;12981433;19;20074;-70
2023/04/22 09:25:49;;;;;;;617.60;328.83;;;;;;;;;;12980631;19;20006;-69
2023/04/22 09:30:09;;;;;;;29.60;26.75;;;;;;;;;;12981151;19;20018;-71
2023/04/22 09:34:27;;;;;;;167.77;151.68;;;;;;;;;;12982801;19;20360;-70
2023/04/22 09:38:53;;;;;;;4.00;2.05;;;;;;;;;;12981141;19;20019;-71
2023/04/22 09:43:11;;;;;;;3.85;2.47;;;;;;;;;;12974867;19;20553;-70
2023/04/22 09:47:35;;;;;;;3.67;1.63;;;;;;;;;;12902150;19;20863;-68
2023/04/22 09:51:57;;;;;;;5.43;2.78;;;;;;;;;;12976560;19;20021;-68
2023/04/22 09:56:14;;;;;;;2.42;1.50;;;;;;;;;;12976977;19;20836;-69
2023/04/22 10:00:36;;;;;;;;;;;;;;;;;;12981014;19;20018;-70
2023/04/22 10:04:55;;;;;;;2.83;1.70;;;;;;;;;;12979215;19;19922;-69
2023/04/22 10:09:18;;;;;;;2.55;1.80;;;;;;;;;;12978449;19;20892;-68
2023/04/22 10:13:36;;;;;;;4.40;1.90;;;;;;;;;;12981077;19;20138;-69
2023/04/22 10:17:54;;;;;;;1.42;1.20;;;;;;;;;;12980314;19;20014;-69
2023/04/22 10:22:13;;;;;;;4.32;1.63;;;;;;;;;;12977095;19;20959;-68
2023/04/22 10:27:01;;;;;;;5.20;1.85;;;;;;;;;;12976967;19;20036;-69
2023/04/22 10:31:22;;;;;;;2.88;1.67;;;;;;;;;;12977489;19;20086;-69
2023/04/22 10:36:00;;;;;;;2.92;2.03;;;;;;;;;;12979323;19;20105;-68
2023/04/22 10:40:21;;;;;;;;;;;;;;;;;;12977348;19;20375;-68
2023/04/22 10:44:51;;;;;;;3.95;1.42;;;;;;;;;;12977624;19;19927;-69
2023/04/22 10:49:11;;;;;;;2.80;1.38;;;;;;;;;;12982165;19;20010;-69
2023/04/22 10:53:36;;;;;;;3.05;1.60;;;;;;;;;;12983593;19;20018;-70
2023/04/22 10:57:54;;;;;;;1.80;1.33;;;;;;;;;;12983914;19;20018;-68
2023/04/22 11:02:14;;;;;;;1.83;1.52;;;;;;;;;;12982218;19;20018;-68
2023/04/22 11:06:32;;;;;;;2.35;1.67;;;;;;;;;;12982429;19;20485;-69
2023/04/22 11:10:50;;;;;;;3.50;1.70;;;;;;;;;;12982958;19;20489;-68
2023/04/22 11:15:11;;;;;;;2.78;1.70;;;;;;;;;;12981007;19;20030;-68
2023/04/22 11:19:29;;;;;;;2.38;1.27;;;;;;;;;;12981487;19;20465;-68
2023/04/22 11:23:51;;;;;;;2.45;1.50;;;;;;;;;;12980535;19;20023;-68
2023/04/22 11:28:09;;;;;;;3.60;1.70;;;;;;;;;;12981694;19;20267;-68
2023/04/22 11:32:28;;;;;;;3.67;1.38;;;;;;;;;;12982398;19;20025;-68
2023/04/22 11:36:46;;;;;;;3.30;1.60;;;;;;;;;;12982090;19;20006;-68
2023/04/22 11:41:04;;;;;;;;;;;;;;;;;;12980566;19;20011;-68
2023/04/22 11:45:22;;;;;;;2.40;1.73;;;;;;;;;;12981707;19;22785;-68
2023/04/22 11:49:40;;;;;;;3.88;1.73;;;;;;;;;;12981242;19;20018;-68
2023/04/22 11:53:59;;;;;;;4.43;1.65;;;;;;;;;;12979925;19;20360;-68
2023/04/22 11:58:23;;;;;;;1.52;1.17;;;;;;;;;;12980338;19;20037;-68
2023/04/22 12:02:43;;;;;;;2.03;1.20;;;;;;;;;;12978977;19;20354;-68
2023/04/22 12:07:02;;;;;;;2.60;1.50;;;;;;;;;;12979917;19;20017;-68
2023/04/22 12:11:20;;;;;;;2.15;1.20;;;;;;;;;;12979137;19;20026;-68
2023/04/22 12:15:42;;;;;;;2.58;1.73;;;;;;;;;;12977115;19;20027;-68
2023/04/22 12:20:00;;;;;;;2.20;1.58;;;;;;;;;;12978743;19;20014;-68
2023/04/22 12:24:21;;;;;;;1.65;1.15;;;;;;;;;;12978939;19;20022;-68
2023/04/22 12:28:40;;;;;;;2.95;1.70;;;;;;;;;;12990027;19;20021;-68
2023/04/22 12:32:57;;;;;;;5.45;1.50;;;;;;;;;;12992014;19;20039;-69
2023/04/22 12:37:17;;;;;;;2.40;1.65;;;;;;;;;;12991551;19;20573;-68
2023/04/22 12:41:35;;;;;;;3.92;1.70;;;;;;;;;;12989268;19;20007;-69
2023/04/22 12:45:53;;;;;;;1.73;1.15;;;;;;;;;;12990865;19;20013;-69
2023/04/22 12:50:11;;;;;;;2.03;1.23;;;;;;;;;;12990387;19;20014;-68
2023/04/22 12:54:28;;;;;;;1.35;1.00;;;;;;;;;;12988659;19;20010;-69
2023/04/22 12:58:46;;;;;;;2.20;1.42;;;;;;;;;;12990647;19;20022;-68
2023/04/22 13:03:04;;;;;;;2.17;1.30;;;;;;;;;;12987815;19;20018;-69
2023/04/22 13:07:22;;;;;;;3.72;1.67;;;;;;;;;;12988965;19;20403;-68
2023/04/22 13:11:39;;;;;;;1.40;0.90;;;;;;;;;;12989135;19;20018;-68
2023/04/22 13:15:57;;;;;;;3.88;1.00;;;;;;;;;;12990025;19;20010;-69
2023/04/22 13:20:15;;;;;;;3.53;1.35;;;;;;;;;;12988432;19;20017;-69
2023/04/22 13:24:33;;;;;;;2.47;1.38;;;;;;;;;;12989249;19;20027;-68
2023/04/22 13:28:51;;;;;;;2.13;1.30;;;;;;;;;;12988530;19;20018;-68
2023/04/22 13:33:08;;;;;;;2.00;1.30;;;;;;;;;;12988034;19;20434;-69
2023/04/22 13:37:26;;;;;;;3.22;1.48;;;;;;;;;;12987352;19;20019;-69
2023/04/22 13:41:44;;;;;;;1.90;1.30;;;;;;;;;;12985465;19;20006;-68
2023/04/22 13:46:02;;;;;;;4.43;1.65;;;;;;;;;;12985802;19;20011;-67
2023/04/22 13:50:21;;;;;;;6.05;1.98;;;;;;;;;;12987879;19;20015;-67
2023/04/22 13:54:39;;;;;;;1.70;1.05;;;;;;;;;;12986609;19;20026;-67
2023/04/22 13:58:57;;;;;;;3.28;1.63;;;;;;;;;;12987617;19;20011;-68
2023/04/22 14:03:15;;;;;;;1.80;1.30;;;;;;;;;;12985544;19;20354;-68
2023/04/22 14:07:33;;;;;;;1.80;1.40;;;;;;;;;;12986451;19;20465;-68
2023/04/22 14:11:50;;;;;;;1.38;1.17;;;;;;;;;;12986717;19;20444;-69
2023/04/22 14:16:10;;;;;;;1.90;1.40;;;;;;;;;;12985451;19;20523;-67
2023/04/22 14:20:27;;;;;;;2.70;1.77;;;;;;;;;;12984671;19;20596;-67
2023/04/22 14:24:45;;;;;;;2.45;1.10;;;;;;;;;;12982880;19;20089;-67
2023/04/22 14:29:02;;;;;;;2.17;1.27;;;;;;;;;;12983744;19;20477;-67
2023/04/22 14:33:22;;;;;;;2.63;1.52;;;;;;;;;;12985087;19;20018;-68
2023/04/22 14:37:43;;;;;;;2.17;1.33;;;;;;;;;;12984644;19;20010;-67
2023/04/22 14:42:02;;;;;;;2.70;1.20;;;;;;;;;;12982243;19;20391;-68
2023/04/22 14:46:20;;;;;;;3.65;1.73;;;;;;;;;;12983886;19;20420;-66
2023/04/22 14:50:38;;;;;;;3.45;1.88;;;;;;;;;;12983331;19;20010;-67
2023/04/22 14:54:56;;;;;;;4.03;1.90;;;;;;;;;;12984480;19;20011;-67
2023/04/22 14:59:20;;;;;;;3.00;1.52;;;;;;;;;;12983634;19;20017;-68
2023/04/22 15:03:38;;;;;;;4.10;1.75;;;;;;;;;;12983208;19;20006;-67
2023/04/22 15:07:56;;;;;;;5.18;1.55;;;;;;;;;;12980967;19;20018;-68
2023/04/22 15:12:14;;;;;;;;;;;;;;;;;;12982377;19;20141;-67
2023/04/22 15:16:31;;;;;;;3.08;2.05;;;;;;;;;;12982778;19;20259;-67
2023/04/22 15:20:51;;;;;;;2.25;1.30;;;;;;;;;;12964034;19;20007;-67
2023/04/22 15:25:09;;;;;;;;;;;;;;;;;;12981254;19;20524;-66
2023/04/22 15:29:27;;;;;;;;;;;;;;;;;;12963047;19;19922;-67
2023/04/22 15:33:45;;;;;;;;;;;;;;;;;;12982823;19;19938;-68
2023/04/22 15:38:05;;;;;;;5.00;1.63;;;;;;;;;;12981409;19;19922;-67
2023/04/22 15:42:25;;;;;;;3.65;1.80;;;;;;;;;;12957839;19;20369;-66
2023/04/22 15:46:45;;;;;;;2.03;1.20;;;;;;;;;;12957875;19;20014;-67
2023/04/22 15:51:03;;;;;;;57.78;22.67;;;;;;;;;;12980225;19;20035;-66
2023/04/22 15:55:20;;;;;;;5.30;2.33;;;;;;;;;;12980202;19;20010;-67
2023/04/22 15:59:41;;;;;;;;;;;;;;;;;;12980672;19;20336;-67
2023/04/22 16:04:06;;;;;;;5.60;1.95;;;;;;;;;;12992576;19;19926;-67
2023/04/22 16:08:25;;;;;;;3.08;1.95;;;;;;;;;;12993589;19;20015;-67
2023/04/22 16:12:45;;;;;;;2.22;1.50;;;;;;;;;;12974561;19;20018;-70
2023/04/22 16:17:04;;;;;;;3.17;1.63;;;;;;;;;;12991686;19;20010;-67
2023/04/22 16:21:28;;;;;;;3.75;1.63;;;;;;;;;;12990158;19;20018;-67
2023/04/22 16:25:49;;;;;;;3.55;1.60;;;;;;;;;;12969004;19;20359;-68
2023/04/22 16:30:07;;;;;;;3.03;1.58;;;;;;;;;;12990056;19;20351;-67
2023/04/22 16:34:26;;;;;;;2.85;1.45;;;;;;;;;;12991985;19;20083;-68
2023/04/22 16:38:44;;;;;;;2.97;1.67;;;;;;;;;;12990816;19;20022;-69
2023/04/22 16:43:04;;;;;;;2.13;1.55;;;;;;;;;;12990176;19;20022;-67
2023/04/22 16:47:22;;;;;;;2.13;1.40;;;;;;;;;;12990636;19;20006;-67
2023/04/22 16:51:43;;;;;;;1.17;0.93;;;;;;;;;;12991272;19;20014;-67
2023/04/22 16:56:01;;;;;;;2.85;1.70;;;;;;;;;;12991603;19;20445;-68
2023/04/22 17:00:19;;;;;;;;;;;;;;;;;;12991567;19;20010;-68
2023/04/22 17:04:37;;;;;;;3.25;1.40;;;;;;;;;;12990366;19;19942;-67
2023/04/22 17:08:55;;;;;;;2.55;1.15;;;;;;;;;;12989364;19;20011;-67
2023/04/22 17:13:14;;;;;;;2.28;1.42;;;;;;;;;;12988093;19;20011;-68
2023/04/22 17:17:32;;;;;;;2.58;1.42;;;;;;;;;;12988879;19;20002;-67
2023/04/22 17:21:50;;;;;;;1.88;1.20;;;;;;;;;;12987743;19;20358;-67
2023/04/22 17:26:07;;;;;;;3.03;1.80;;;;;;;;;;12986048;19;20014;-67
2023/04/22 17:30:25;;;;;;;2.33;1.80;;;;;;;;;;12988925;19;20030;-66
2023/04/22 17:34:43;;;;;;;2.30;1.40;;;;;;;;;;12988080;19;20014;-67
2023/04/22 17:39:00;;;;;;;1.83;1.17;;;;;;;;;;12988246;19;20022;-67
2023/04/22 17:43:18;;;;;;;1.88;1.45;;;;;;;;;;12987558;19;20027;-67
2023/04/22 17:47:36;;;;;;;4.22;1.48;;;;;;;;;;12987800;19;20011;-67
2023/04/22 17:51:54;;;;;;;3.20;1.63;;;;;;;;;;12988115;19;20016;-67
2023/04/22 17:56:12;;;;;;;;;;;;;;;;;;12987865;19;20021;-67
2023/04/22 18:00:34;;;;;;;6.78;3.55;;;;;;;;;;12987170;19;19931;-67
2023/04/22 18:04:52;;;;;;;8.93;3.83;;;;;;;;;;12987593;19;20018;-67
2023/04/22 18:09:10;;;;;;;13.57;5.38;;;;;;;;;;12986584;19;20026;-67
2023/04/22 18:13:28;;;;;;;26.48;13.43;;;;;;;;;;12986893;19;20018;-67
2023/04/22 18:17:46;;;;;;;22.15;7.10;;;;;;;;;;12986440;19;20512;-67
2023/04/22 18:22:03;;;;;;;38.20;16.55;;;;;;;;;;12984848;19;20014;-66
2023/04/22 18:26:21;;;;;;;15.75;9.93;;;;;;;;;;12982319;19;20018;-67
2023/04/22 18:30:39;;;;;;;;;;;;;;;;;;12987870;19;20014;-67
2023/04/22 18:34:57;;;;;;;23.45;10.23;;;;;;;;;;12963521;19;19914;-67
2023/04/22 18:39:15;;;;;;;16.08;8.05;;;;;;;;;;12962907;19;20022;-66
2023/04/22 18:43:33;;;;;;;28.35;11.38;;;;;;;;;;12984086;19;20003;-67
2023/04/22 18:47:51;;;;;;;;;;;;;;;;;;12961339;19;20014;-67
2023/04/22 18:52:09;;;;;;;34.17;14.45;;;;;;;;;;12960198;19;20522;-67
2023/04/22 18:56:28;;;;;;;;;;;;;;;;;;12983808;19;20022;-68
2023/04/22 19:00:46;;;;;;;28.23;12.88;;;;;;;;;;12982795;19;19931;-67
2023/04/22 19:05:05;;;;;;;21.05;10.45;;;;;;;;;;12983104;19;20018;-67
2023/04/22 19:09:22;;;;;;;20.70;10.40;;;;;;;;;;12962198;19;20050;-67
2023/04/22 19:13:41;;;;;;;19.88;8.00;;;;;;;;;;12983041;19;20019;-67
2023/04/22 19:18:01;;;;;;;14.35;7.53;;;;;;;;;;12984303;19;20014;-67
2023/04/22 19:22:20;;;;;;;15.40;8.30;;;;;;;;;;12982850;19;20010;-66
2023/04/22 19:26:37;;;;;;;36.97;15.13;;;;;;;;;;12983527;19;20034;-68
2023/04/22 19:30:55;;;;;;;33.70;15.02;;;;;;;;;;12983416;19;20484;-67
2023/04/22 19:35:15;;;;;;;32.53;13.88;;;;;;;;;;12981846;19;20021;-67
2023/04/22 19:39:32;;;;;;;33.03;14.90;;;;;;;;;;12981419;19;20038;-67
2023/04/22 19:43:50;;;;;;;30.10;12.95;;;;;;;;;;12981288;19;20048;-68
2023/04/22 19:48:09;;;;;;;29.38;12.25;;;;;;;;;;12980621;19;20019;-66
2023/04/22 19:52:28;;;;;;;42.38;17.45;;;;;;;;;;12981498;19;20358;-67
2023/04/22 19:56:50;;;;;;;32.28;10.13;;;;;;;;;;12981254;19;20007;-66
2023/04/22 20:01:08;;;;;;;18.73;7.95;;;;;;;;;;12980738;19;20010;-67
2023/04/22 20:05:27;;;;;;;19.50;8.60;;;;;;;;;;12981704;19;20470;-66
2023/04/22 20:09:45;;;;;;;23.38;10.00;;;;;;;;;;12979711;19;20476;-66
2023/04/22 20:14:06;;;;;;;23.50;9.60;;;;;;;;;;12980266;19;20018;-66
2023/04/22 20:18:30;;;;;;;22.97;9.80;;;;;;;;;;12979386;19;20566;-65
2023/04/22 20:22:51;;;;;;;23.75;10.57;;;;;;;;;;12978611;19;20355;-66
2023/04/22 20:27:10;;;;;;;26.67;10.88;;;;;;;;;;12955322;19;20010;-67
2023/04/22 20:31:27;;;;;;;;;;;;;;;;;;12979299;19;20011;-68
2023/04/22 20:35:47;;;;;;;21.52;10.35;;;;;;;;;;12979321;19;19918;-66
2023/04/22 20:40:09;;;;;;;25.42;11.80;;;;;;;;;;12977596;19;20354;-66
2023/04/22 20:44:27;;;;;;;22.27;11.75;;;;;;;;;;12978016;19;20402;-66
2023/04/22 20:48:44;;;;;;;25.63;13.63;;;;;;;;;;12987831;19;20025;-68
2023/04/22 20:53:05;;;;;;;28.25;11.63;;;;;;;;;;12991275;19;20102;-68
2023/04/22 20:57:27;;;;;;;22.42;11.65;;;;;;;;;;12990984;19;20018;-66
2023/04/22 21:01:46;;;;;;;30.60;13.05;;;;;;;;;;12991067;19;20007;-66
2023/04/22 21:06:04;;;;;;;26.23;12.48;;;;;;;;;;12986880;19;20496;-66
2023/04/22 21:10:22;;;;;;;27.83;13.48;;;;;;;;;;12990090;19;20027;-67
2023/04/22 21:14:40;;;;;;;28.33;12.55;;;;;;;;;;12989849;19;20018;-67
2023/04/22 21:19:02;;;;;;;27.42;11.90;;;;;;;;;;12990109;19;20230;-66
2023/04/22 21:23:23;;;;;;;19.52;10.57;;;;;;;;;;12987658;19;20027;-66
2023/04/22 21:27:41;;;;;;;26.50;12.02;;;;;;;;;;12989097;19;20332;-66
2023/04/22 21:31:58;;;;;;;25.83;11.05;;;;;;;;;;12988736;19;20015;-66
2023/04/22 21:36:25;;;;;;;25.83;12.00;;;;;;;;;;12988400;19;20014;-66
2023/04/22 21:40:45;;;;;;;24.60;10.38;;;;;;;;;;12988352;19;20019;-66
2023/04/22 21:45:03;;;;;;;21.17;10.75;;;;;;;;;;12984980;19;20025;-67
2023/04/22 21:49:21;;;;;;;22.50;10.80;;;;;;;;;;12987134;19;20020;-66
2023/04/22 21:53:39;;;;;;;21.25;10.50;;;;;;;;;;12987242;19;20014;-66
2023/04/22 21:57:57;;;;;;;22.98;9.98;;;;;;;;;;12987007;19;20018;-66
2023/04/22 22:02:15;;;;;;;22.63;10.60;;;;;;;;;;12985808;19;20027;-67
2023/04/22 22:06:33;;;;;;;18.98;10.02;;;;;;;;;;12986771;19;20010;-66
2023/04/22 22:10:51;;;;;;;20.20;10.50;;;;;;;;;;12987247;19;20018;-66
2023/04/22 22:15:09;;;;;;;20.25;10.40;;;;;;;;;;12985853;19;20011;-67
2023/04/22 22:19:29;;;;;;;20.92;9.52;;;;;;;;;;12986951;19;20017;-67
2023/04/22 22:23:46;;;;;;;21.98;10.23;;;;;;;;;;12985794;19;20478;-67
2023/04/22 22:28:04;;;;;;;19.60;9.82;;;;;;;;;;12983865;19;20019;-66
2023/04/22 22:32:22;;;;;;;23.38;10.27;;;;;;;;;;12985457;19;20494;-65
2023/04/22 22:36:40;;;;;;;20.02;9.23;;;;;;;;;;12984787;19;20680;-66
2023/04/22 22:40:58;;;;;;;;;;;;;;;;;;12985141;19;20328;-67
2023/04/22 22:45:18;;;;;;;21.25;8.63;;;;;;;;;;12961829;19;19925;-66
2023/04/22 22:49:36;;;;;;;16.58;8.73;;;;;;;;;;12982868;19;20019;-66
2023/04/22 22:53:54;;;;;;;16.83;8.20;;;;;;;;;;12984319;19;20384;-66
2023/04/22 22:58:15;;;;;;;17.10;7.80;;;;;;;;;;12983049;19;20019;-66
2023/04/22 23:02:33;;;;;;;16.15;7.65;;;;;;;;;;12983962;19;20029;-66
2023/04/22 23:06:54;;;;;;;16.58;7.90;;;;;;;;;;12984201;19;20031;-66
2023/04/22 23:11:12;;;;;;;16.23;7.97;;;;;;;;;;12981762;19;20394;-66
2023/04/22 23:15:29;;;;;;;15.50;7.25;;;;;;;;;;12983313;19;20044;-66
2023/04/22 23:19:50;;;;;;;19.58;8.13;;;;;;;;;;12981558;19;20031;-67
2023/04/22 23:24:09;;;;;;;18.42;7.38;;;;;;;;;;12981829;19;20007;-66
2023/04/22 23:28:28;;;;;;;14.32;7.05;;;;;;;;;;12982306;19;20025;-69
2023/04/22 23:32:50;;;;;;;13.95;7.57;;;;;;;;;;12982479;19;20018;-68
2023/04/22 23:37:12;;;;;;;17.20;6.38;;;;;;;;;;12981039;19;20494;-67
2023/04/22 23:41:30;;;;;;;14.43;6.50;;;;;;;;;;12981268;19;20013;-67
2023/04/22 23:45:48;;;;;;;11.85;6.97;;;;;;;;;;12982484;19;20377;-68
2023/04/22 23:50:07;;;;;;;10.93;5.85;;;;;;;;;;12980609;19;20030;-66
2023/04/22 23:54:26;;;;;;;20.08;7.70;;;;;;;;;;12982296;19;20339;-67
2023/04/22 23:58:44;;;;;;;16.63;6.55;;;;;;;;;;12980077;19;20018;-66
